MMTC/TRC METAR and TAF weather

Enter ICAO airport designator
Station Type Date Time Source
MMTC METAR 2019/06/17 03:46 UTC NOAA

MMTC 170346Z 00000KT 10SM SKC 32/06 A2988


Station Type Date Time Source
MMTC Decoded METAR 2019/06/17 03:46 UTC NOAA

Torreon, Coah., Mexico (MMTC) 25-32N 103-27W 1150M
Jun 16, 2019 - 11:46 PM EDT / 2019.06.17 0346 UTC
Wind: Calm:0
Visibility: 10 mile(s):0
Sky conditions: clear
Temperature: 89 F (32 C)
Dew Point: 42 F (6 C)
Relative Humidity: 19%
Pressure (altimeter): 29.88 in. Hg (1011 hPa)
ob: MMTC 170346Z 00000KT 10SM SKC 32/06 A2988
cycle: 4

Station Type Date Time Source
MMTC TAF 2019/06/17 06:26 UTC NOAA

TAF MMTC 170519Z 1706/1806 00000KT P6SM SKC
FM171800 33008KT P6SM SCT030 SCT240
BECMG 1803/1805 09004KT SKC

Example: see airport list